createdAt,value
2022-10-20T00:02:49.602Z,100918.56
2022-10-20T00:05:53.088Z,100921.69
2022-10-20T00:08:57.268Z,100914.13
2022-10-20T00:12:00.227Z,100920.84
2022-10-20T00:15:02.928Z,100930.94
2022-10-20T00:18:05.743Z,100927.59
2022-10-20T00:21:11.040Z,100932.47
2022-10-20T00:24:13.968Z,100935.50
2022-10-20T00:27:16.503Z,100938.31
2022-10-20T00:30:21.465Z,100939.75
2022-10-20T00:33:26.692Z,100941.50
2022-10-20T00:36:29.586Z,100942.03
2022-10-20T00:39:32.129Z,100947.34
2022-10-20T00:42:34.985Z,100944.84
2022-10-20T00:45:37.732Z,100951.59
2022-10-20T00:48:43.056Z,100956.91
2022-10-20T00:51:45.751Z,100951.63
2022-10-20T00:54:49.832Z,100950.88
2022-10-20T00:57:54.320Z,100945.84
2022-10-20T01:01:05.069Z,100955.59
2022-10-20T01:04:08.192Z,100957.62
2022-10-20T01:07:11.000Z,100957.91
2022-10-20T01:10:14.271Z,100952.03
2022-10-20T01:13:39.588Z,100948.28
2022-10-20T01:17:00.452Z,100951.53
2022-10-20T01:20:28.266Z,100949.47
2022-10-20T01:23:54.005Z,100952.75
2022-10-20T01:27:18.575Z,100951.44
2022-10-20T01:30:25.445Z,100959.56
2022-10-20T01:33:42.059Z,100954.63
2022-10-20T01:37:08.343Z,100956.94
2022-10-20T01:40:28.887Z,100958.87
2022-10-20T01:43:36.070Z,100958.56
2022-10-20T01:46:41.843Z,100964.28
2022-10-20T01:49:47.581Z,100963.38
2022-10-20T01:52:54.767Z,100961.75
2022-10-20T01:55:59.988Z,100968.63
2022-10-20T01:59:41.811Z,100965.22
2022-10-20T02:02:55.654Z,100958.25
2022-10-20T02:06:17.051Z,100964.59
2022-10-20T02:09:41.490Z,100958.13
2022-10-20T02:12:49.085Z,100970.47
2022-10-20T02:15:55.900Z,100969.37
2022-10-20T02:22:09.890Z,100967.50
2022-10-20T02:25:13.706Z,100970.00
2022-10-20T02:28:17.447Z,100979.50
2022-10-20T02:31:21.227Z,100977.84
2022-10-20T02:34:27.713Z,100979.94
2022-10-20T02:37:30.421Z,100974.72
2022-10-20T02:40:33.292Z,100982.59
2022-10-20T02:43:36.057Z,100992.16
2022-10-20T02:46:38.586Z,100994.94
2022-10-20T02:49:41.438Z,101001.44
2022-10-20T02:52:44.153Z,100998.47
2022-10-20T02:55:46.936Z,101003.72
2022-10-20T02:58:49.822Z,101010.69
2022-10-20T03:01:52.720Z,101006.97
2022-10-20T03:04:55.247Z,101012.09
2022-10-20T03:07:58.042Z,101007.13
2022-10-20T03:11:00.806Z,101000.31
2022-10-20T03:14:03.806Z,101000.78
2022-10-20T03:17:06.443Z,101004.22
2022-10-20T03:20:10.659Z,101009.47
2022-10-20T03:23:17.744Z,101004.78
2022-10-20T03:26:22.812Z,101011.97
2022-10-20T03:29:25.239Z,101018.47
2022-10-20T03:32:28.263Z,101016.16
2022-10-20T03:35:30.738Z,101019.91
2022-10-20T03:38:36.420Z,101019.13
2022-10-20T03:41:43.846Z,101012.34
2022-10-20T03:44:49.090Z,101013.66
2022-10-20T03:47:51.676Z,101013.16
2022-10-20T03:50:57.119Z,101021.66
2022-10-20T03:53:59.612Z,101019.63
2022-10-20T03:57:06.837Z,101023.34
2022-10-20T04:00:15.531Z,101015.69
2022-10-20T04:03:22.436Z,101024.16
2022-10-20T04:06:25.042Z,101022.16
2022-10-20T04:09:27.910Z,101023.87
2022-10-20T04:12:30.367Z,101025.81
2022-10-20T04:15:33.261Z,101023.66
2022-10-20T04:18:36.475Z,101030.81
2022-10-20T04:21:39.463Z,101026.72
2022-10-20T04:24:42.637Z,101032.06
2022-10-20T04:27:45.572Z,101025.84
2022-10-20T04:30:53.499Z,101020.84
2022-10-20T04:33:56.717Z,101018.75
2022-10-20T04:36:59.441Z,101021.47
2022-10-20T04:40:03.477Z,101019.75
2022-10-20T04:43:05.945Z,101020.88
2022-10-20T04:46:09.181Z,101013.91
2022-10-20T04:49:11.827Z,101020.75
2022-10-20T04:52:15.708Z,101020.75
2022-10-20T04:55:18.693Z,101016.69
2022-10-20T04:58:21.971Z,101019.25
2022-10-20T05:01:27.432Z,101026.34
2022-10-20T05:04:30.935Z,101024.38
2022-10-20T05:07:33.742Z,101027.91
2022-10-20T05:10:43.939Z,101033.16
2022-10-20T05:13:46.616Z,101035.00
2022-10-20T05:16:50.130Z,101042.88
2022-10-20T05:19:53.094Z,101047.03
2022-10-20T05:22:56.064Z,101055.97
2022-10-20T05:26:03.078Z,101048.53
2022-10-20T05:29:08.575Z,101064.69
2022-10-20T05:32:11.415Z,101069.34
2022-10-20T05:35:20.916Z,101076.72
2022-10-20T05:38:23.695Z,101069.78
2022-10-20T05:41:32.157Z,101077.44
2022-10-20T05:44:37.482Z,101091.22
2022-10-20T05:47:40.596Z,101090.41
2022-10-20T05:53:49.055Z,101094.34
2022-10-20T05:56:51.550Z,101095.66
2022-10-20T05:59:54.707Z,101103.91
2022-10-20T06:02:57.997Z,101103.69
2022-10-20T06:06:01.186Z,101110.53
2022-10-20T06:09:07.198Z,101114.28
2022-10-20T06:12:09.972Z,101126.00
2022-10-20T06:15:12.549Z,101127.78
2022-10-20T06:18:15.785Z,101132.34
2022-10-20T06:21:23.026Z,101133.78
2022-10-20T06:24:26.099Z,101133.41
2022-10-20T06:27:28.663Z,101145.59
2022-10-20T06:30:33.954Z,101151.25
2022-10-20T06:33:36.411Z,101149.78
2022-10-20T06:36:40.567Z,101153.09
2022-10-20T06:39:43.075Z,101148.53
2022-10-20T06:42:45.896Z,101152.34
2022-10-20T06:46:18.625Z,101157.50
2022-10-20T06:49:22.171Z,101158.47
2022-10-20T06:52:24.562Z,101163.75
2022-10-20T06:55:27.351Z,101162.75
2022-10-20T06:58:30.202Z,101162.78
2022-10-20T07:01:35.216Z,101170.41
2022-10-20T07:04:37.992Z,101174.84
2022-10-20T07:07:41.650Z,101182.78
2022-10-20T07:10:45.387Z,101178.25
2022-10-20T07:13:49.370Z,101184.44
2022-10-20T07:16:52.018Z,101181.34
2022-10-20T07:19:54.791Z,101189.59
2022-10-20T07:22:57.719Z,101195.47
2022-10-20T07:26:01.447Z,101190.78
2022-10-20T07:29:05.049Z,101197.97
2022-10-20T07:32:08.029Z,101198.06
2022-10-20T07:35:10.468Z,101202.38
2022-10-20T07:38:13.789Z,101193.91
2022-10-20T07:41:17.512Z,101196.97
2022-10-20T07:44:20.695Z,101194.59
2022-10-20T07:47:23.355Z,101193.66
2022-10-20T07:50:30.314Z,101190.00
2022-10-20T07:53:32.810Z,101188.72
2022-10-20T07:56:38.863Z,101192.47
2022-10-20T07:59:42.209Z,101199.69
2022-10-20T08:02:46.824Z,101196.94
2022-10-20T08:05:49.796Z,101201.69
2022-10-20T08:08:53.253Z,101189.91
2022-10-20T08:11:56.380Z,101205.12
2022-10-20T08:18:16.021Z,101196.09
2022-10-20T08:21:20.440Z,101201.09
2022-10-20T08:24:23.429Z,101199.16
2022-10-20T08:27:25.951Z,101210.50
2022-10-20T08:30:35.364Z,101205.41
2022-10-20T08:33:37.903Z,101214.19
2022-10-20T08:36:40.693Z,101208.12
2022-10-20T08:39:43.295Z,101210.50
2022-10-20T08:42:49.625Z,101201.06
2022-10-20T08:45:52.375Z,101201.72
2022-10-20T08:48:55.418Z,101208.41
2022-10-20T08:51:58.913Z,101209.28
2022-10-20T08:55:04.754Z,101209.94
2022-10-20T08:58:13.362Z,101214.69
2022-10-20T09:01:24.338Z,101211.50
2022-10-20T09:07:49.983Z,101218.69
2022-10-20T09:10:56.790Z,101213.41
2022-10-20T09:13:59.820Z,101216.59
2022-10-20T09:17:02.665Z,101214.94
2022-10-20T09:20:14.241Z,101215.75
2022-10-20T09:23:39.908Z,101221.69
2022-10-20T09:26:58.647Z,101206.22
2022-10-20T09:30:31.003Z,101207.91
2022-10-20T09:33:35.145Z,101209.38
2022-10-20T09:36:37.807Z,101222.78
2022-10-20T09:39:49.188Z,101214.06
2022-10-20T09:42:57.714Z,101215.78
2022-10-20T09:46:05.947Z,101211.59
2022-10-20T09:49:23.314Z,101215.34
2022-10-20T09:52:34.866Z,101211.69
2022-10-20T09:55:45.304Z,101213.94
2022-10-20T09:58:48.260Z,101216.44
2022-10-20T10:02:00.826Z,101212.91
2022-10-20T10:05:19.918Z,101202.81
2022-10-20T10:08:25.610Z,101204.13
2022-10-20T10:11:38.525Z,101206.50
2022-10-20T10:14:56.133Z,101201.78
2022-10-20T10:18:00.854Z,101200.66
2022-10-20T10:21:08.810Z,101202.03
2022-10-20T10:24:40.932Z,101191.38
2022-10-20T10:27:58.809Z,101192.34
2022-10-20T10:31:18.110Z,101182.87
2022-10-20T10:34:20.513Z,101171.75
2022-10-20T10:37:23.357Z,101182.69
2022-10-20T10:40:45.173Z,101172.37
2022-10-20T10:44:10.695Z,101170.22
2022-10-20T10:47:28.456Z,101166.38
2022-10-20T10:50:48.121Z,101164.38
2022-10-20T10:54:11.762Z,101154.63
2022-10-20T10:57:26.507Z,101161.41
2022-10-20T11:00:49.493Z,101154.53
2022-10-20T11:04:26.272Z,101151.69
2022-10-20T11:07:53.485Z,101146.19
2022-10-20T11:11:14.865Z,101137.28
2022-10-20T11:14:40.452Z,101129.59
2022-10-20T11:17:48.932Z,101132.75
2022-10-20T11:21:33.153Z,101121.56
2022-10-20T11:24:47.804Z,101115.94
2022-10-20T11:27:50.680Z,101107.06
2022-10-20T11:30:57.148Z,101103.22
2022-10-20T11:34:19.156Z,101105.13
2022-10-20T11:37:26.168Z,101097.59
2022-10-20T11:40:38.664Z,101105.75
2022-10-20T11:43:46.229Z,101091.63
2022-10-20T11:47:01.041Z,101086.81
2022-10-20T11:50:19.635Z,101085.22
2022-10-20T11:53:28.036Z,101080.31
2022-10-20T11:56:52.672Z,101081.97
2022-10-20T12:00:07.713Z,101075.66
2022-10-20T12:03:38.393Z,101071.94
2022-10-20T12:07:06.270Z,101076.72
2022-10-20T12:10:30.201Z,101071.91
2022-10-20T12:13:48.322Z,101070.22
2022-10-20T12:17:00.102Z,101067.81
2022-10-20T12:20:22.400Z,101059.47
2022-10-20T12:23:43.555Z,101067.06
2022-10-20T12:27:01.862Z,101064.00
2022-10-20T12:30:43.728Z,101054.00
2022-10-20T12:33:54.338Z,101055.41
2022-10-20T12:37:08.190Z,101057.37
2022-10-20T12:40:13.923Z,101055.47
2022-10-20T12:43:29.878Z,101045.88
2022-10-20T12:46:40.891Z,101046.31
2022-10-20T12:49:53.529Z,101044.91
2022-10-20T12:53:09.454Z,101048.69
2022-10-20T12:56:14.401Z,101037.63
2022-10-20T12:59:30.203Z,101035.50
2022-10-20T13:02:44.186Z,101033.75
2022-10-20T13:05:48.405Z,101029.16
2022-10-20T13:09:17.187Z,101023.87
2022-10-20T13:12:29.240Z,101017.56
2022-10-20T13:15:38.831Z,101018.06
2022-10-20T13:18:46.862Z,101017.13
2022-10-20T13:21:51.309Z,101018.34
2022-10-20T13:24:56.666Z,101015.06
2022-10-20T13:28:14.825Z,101014.22
2022-10-20T13:32:04.286Z,101016.28
2022-10-20T13:35:36.856Z,101013.63
2022-10-20T13:39:36.102Z,101024.75
2022-10-20T13:43:03.154Z,101018.00
2022-10-20T13:46:26.492Z,101011.34
2022-10-20T13:50:07.473Z,101007.81
2022-10-20T13:53:22.287Z,101001.97
2022-10-20T13:56:37.691Z,100995.94
2022-10-20T13:59:55.788Z,100995.53
2022-10-20T14:03:01.459Z,100997.38
2022-10-20T14:06:06.903Z,100998.81
2022-10-20T14:09:14.570Z,101003.66
2022-10-20T14:12:26.297Z,100987.59
2022-10-20T14:15:37.977Z,100996.87
2022-10-20T14:18:40.945Z,100986.16
2022-10-20T14:21:50.812Z,100987.59
2022-10-20T14:24:56.963Z,100992.19
2022-10-20T14:28:03.848Z,100991.22
2022-10-20T14:31:14.184Z,100983.50
2022-10-20T14:34:23.166Z,100986.37
2022-10-20T14:37:29.033Z,100987.28
2022-10-20T14:40:36.719Z,100984.75
2022-10-20T14:43:47.979Z,100984.22
2022-10-20T14:46:51.191Z,100983.56
2022-10-20T14:49:55.408Z,100980.53
2022-10-20T14:52:58.039Z,100981.03
2022-10-20T14:56:02.893Z,100976.06
2022-10-20T14:59:14.876Z,100975.94
2022-10-20T15:02:21.091Z,100970.16
2022-10-20T15:05:33.274Z,100962.56
2022-10-20T15:08:36.521Z,100972.03
2022-10-20T15:11:39.283Z,100974.62
2022-10-20T15:14:45.037Z,100968.94
2022-10-20T15:17:48.617Z,100969.31
2022-10-20T15:20:53.708Z,100966.53
2022-10-20T15:23:56.224Z,100960.22
2022-10-20T15:26:59.960Z,100958.78
2022-10-20T15:30:04.255Z,100960.03
2022-10-20T15:33:13.742Z,100956.31
2022-10-20T15:36:21.081Z,100956.25
2022-10-20T15:39:24.173Z,100953.53
2022-10-20T15:42:26.927Z,100953.13
2022-10-20T15:45:47.934Z,100949.94
2022-10-20T15:48:50.458Z,100950.59
2022-10-20T15:52:00.295Z,100950.41
2022-10-20T15:55:12.439Z,100940.91
2022-10-20T15:58:15.969Z,100946.97
2022-10-20T16:01:20.265Z,100943.34
2022-10-20T16:04:26.531Z,100943.66
2022-10-20T16:07:29.169Z,100943.50
2022-10-20T16:10:39.067Z,100940.62
2022-10-20T16:14:01.537Z,100943.94
2022-10-20T16:17:24.215Z,100943.94
2022-10-20T16:20:46.574Z,100943.09
2022-10-20T16:24:09.427Z,100953.88
2022-10-20T16:27:33.216Z,100953.56
2022-10-20T16:31:10.043Z,100949.69
2022-10-20T16:34:15.672Z,100949.16
2022-10-20T16:37:18.604Z,100959.91
2022-10-20T16:40:21.223Z,100954.31
2022-10-20T16:43:24.125Z,100961.94
2022-10-20T16:46:29.169Z,100957.50
2022-10-20T16:49:32.205Z,100959.50
2022-10-20T16:52:34.888Z,100959.81
2022-10-20T16:55:37.966Z,100958.53
2022-10-20T16:58:40.504Z,100952.37
2022-10-20T17:01:43.363Z,100958.00
2022-10-20T17:04:49.599Z,100957.47
2022-10-20T17:07:52.652Z,100956.84
2022-10-20T17:10:57.844Z,100961.88
2022-10-20T17:14:00.736Z,100960.53
2022-10-20T17:17:03.523Z,100958.84
2022-10-20T17:20:07.766Z,100964.84
2022-10-20T17:23:10.562Z,100954.28
2022-10-20T17:26:22.023Z,100959.22
2022-10-20T17:29:26.288Z,100958.06
2022-10-20T17:32:29.680Z,100961.19
2022-10-20T17:35:32.414Z,100964.34
2022-10-20T17:38:44.868Z,100959.78
2022-10-20T17:41:48.227Z,100954.03
2022-10-20T17:44:50.939Z,100958.13
2022-10-20T17:47:53.899Z,100956.38
2022-10-20T17:51:05.131Z,100964.00
2022-10-20T17:54:08.623Z,100960.00
2022-10-20T17:57:11.812Z,100968.78
2022-10-20T18:00:22.874Z,100979.87
2022-10-20T18:03:35.687Z,100978.19
2022-10-20T18:06:38.919Z,100967.69
2022-10-20T18:09:43.403Z,100976.75
2022-10-20T18:12:46.199Z,100975.47
2022-10-20T18:15:49.975Z,100980.25
2022-10-20T18:18:52.933Z,100971.75
2022-10-20T18:21:56.007Z,100969.00
2022-10-20T18:24:58.984Z,100963.94
2022-10-20T18:28:02.029Z,100964.22
2022-10-20T18:31:10.874Z,100962.50
2022-10-20T18:34:17.372Z,100957.50
2022-10-20T18:37:20.241Z,100960.38
2022-10-20T18:40:24.395Z,100966.22
2022-10-20T18:43:27.270Z,100961.75
2022-10-20T18:46:31.832Z,100956.69
2022-10-20T18:49:36.008Z,100957.59
2022-10-20T18:52:39.094Z,100959.19
2022-10-20T18:55:42.837Z,100958.44
2022-10-20T18:58:58.257Z,100962.59
2022-10-20T19:02:01.700Z,100961.16
2022-10-20T19:05:05.261Z,100961.69
2022-10-20T19:08:08.001Z,100956.19
2022-10-20T19:11:13.557Z,100951.59
2022-10-20T19:14:16.858Z,100955.28
2022-10-20T19:17:19.954Z,100954.53
2022-10-20T19:20:22.845Z,100960.44
2022-10-20T19:23:26.469Z,100961.06
2022-10-20T19:26:35.312Z,100967.34
2022-10-20T19:29:38.347Z,100958.72
2022-10-20T19:32:41.667Z,100961.84
2022-10-20T19:35:49.668Z,100956.69
2022-10-20T19:38:52.660Z,100954.97
2022-10-20T19:41:57.770Z,100951.78
2022-10-20T19:45:01.553Z,100950.22
2022-10-20T19:48:04.802Z,100954.56
2022-10-20T19:51:09.870Z,100955.75
2022-10-20T19:54:13.181Z,100957.34
2022-10-20T19:57:18.898Z,100951.25
2022-10-20T20:00:21.906Z,100954.22
2022-10-20T20:03:25.788Z,100957.94
2022-10-20T20:06:31.016Z,100956.00
2022-10-20T20:09:34.015Z,100950.81
2022-10-20T20:12:36.482Z,100955.56
2022-10-20T20:15:39.937Z,100955.66
2022-10-20T20:18:42.799Z,100953.28
2022-10-20T20:21:46.243Z,100964.38
2022-10-20T20:24:48.861Z,100962.44
2022-10-20T20:27:53.741Z,100965.81
2022-10-20T20:31:07.509Z,100967.34
2022-10-20T20:34:10.415Z,100967.12
2022-10-20T20:37:12.992Z,100963.94
2022-10-20T20:40:18.098Z,100961.00
2022-10-20T20:43:20.640Z,100963.25
2022-10-20T20:46:24.868Z,100961.63
2022-10-20T20:49:27.527Z,100964.91
2022-10-20T20:52:30.953Z,100963.56
2022-10-20T20:55:33.513Z,100958.09
2022-10-20T20:58:36.765Z,100952.69
2022-10-20T21:01:55.211Z,100955.63
2022-10-20T21:05:02.069Z,100955.84
2022-10-20T21:08:05.465Z,100953.94
2022-10-20T21:11:09.077Z,100953.88
2022-10-20T21:14:11.758Z,100948.16
2022-10-20T21:17:14.622Z,100954.94
2022-10-20T21:20:17.300Z,100949.84
2022-10-20T21:23:19.978Z,100951.56
2022-10-20T21:26:23.014Z,100962.37
2022-10-20T21:29:25.986Z,100958.75
2022-10-20T21:32:28.472Z,100957.44
2022-10-20T21:35:31.183Z,100951.09
2022-10-20T21:38:35.008Z,100962.72
2022-10-20T21:41:38.192Z,100961.28
2022-10-20T21:44:40.802Z,100953.94
2022-10-20T21:47:43.999Z,100954.69
2022-10-20T21:50:46.517Z,100954.94
2022-10-20T21:53:49.676Z,100957.41
2022-10-20T21:56:52.865Z,100947.28
2022-10-20T21:59:55.578Z,100946.81
2022-10-20T22:02:58.165Z,100939.56
2022-10-20T22:06:03.273Z,100948.97
2022-10-20T22:09:07.026Z,100942.03
2022-10-20T22:12:09.893Z,100950.06
2022-10-20T22:15:12.566Z,100941.81
2022-10-20T22:18:15.347Z,100942.03
2022-10-20T22:21:18.194Z,100942.56
2022-10-20T22:24:22.155Z,100942.59
2022-10-20T22:27:31.377Z,100943.88
2022-10-20T22:30:44.366Z,100947.53
2022-10-20T22:33:47.039Z,100948.06
2022-10-20T22:36:50.472Z,100954.50
2022-10-20T22:39:53.033Z,100959.13
2022-10-20T22:42:56.141Z,100961.19
2022-10-20T22:45:59.062Z,100958.06
2022-10-20T22:49:02.496Z,100951.84
2022-10-20T22:52:05.364Z,100950.00
2022-10-20T22:55:08.686Z,100952.53
2022-10-20T22:58:11.457Z,100947.53
2022-10-20T23:01:20.173Z,100949.81
2022-10-20T23:04:22.914Z,100950.72
2022-10-20T23:07:26.084Z,100947.78
2022-10-20T23:10:28.943Z,100955.53
2022-10-20T23:13:32.162Z,100949.59
2022-10-20T23:16:35.322Z,100946.88
2022-10-20T23:19:38.710Z,100938.53
2022-10-20T23:22:41.652Z,100933.13
2022-10-20T23:25:44.906Z,100921.81
2022-10-20T23:28:48.901Z,100911.37
2022-10-20T23:31:52.300Z,100923.00
2022-10-20T23:34:54.895Z,100920.41
2022-10-20T23:37:57.774Z,100912.41
2022-10-20T23:41:00.379Z,100929.19
2022-10-20T23:44:03.150Z,100921.09
2022-10-20T23:47:05.817Z,100926.78
2022-10-20T23:50:09.168Z,100921.97
2022-10-20T23:53:12.329Z,100921.87
2022-10-20T23:56:15.352Z,100931.31
2022-10-20T23:59:17.823Z,100927.22
